Terminal Aerodrome Forecast
Issued by NWS Atlanta, GA

Home | Current Version | Previous Version | Text Only | Print | Product List | Glossary On
Versions: 1 2 3 4 5 6 7 8 9 10 11 12 13 14 15 16 17 18 19 20 21 22 23 24 25 26 27 28 29 30 31 32 33 34 35 36 37 38 39 40 41
000
FTUS42 KFFC 051726
TAFAHN
TAF
KAHN 051726Z 0518/0618 22008KT P6SM SCT035 BKN040
      TEMPO 0519/0522 5SM TSRA BKN025CB
     FM052300 22006KT P6SM FEW035 BKN100
     FM060800 23003KT 6SM BR BKN012
     FM061000 24003KT 4SM BR BKN007
     FM061400 25005KT P6SM SCT007 BKN012
     FM061600 26007KT P6SM BKN040=

USA.gov is the U.S. government's official web portal to all federal, state and local government web resources and services.